Airfield :
LOGIN :

Register | Disclaimer

   EN    FR    IT 

 










Legend :    VFR   Marginal VFR   IFR   Intensive IFR   Very Intensive IFR
Visi :
Ceiling :
>= 8 km
>= 3000ft
5 to 8 km
1000 to 3000 ft
1500m to 5 km
500 to 1000 ft
800 to 1500m
200 to 500 ft
< 800m
< 200 ft
Symbols :   Thunderstorms  Fog  Heavy snow  Heavy precipitations  Wind > 20 kt
SIGMETs :     Misc.  Thunderstorms  Icing  Turbulence  Mountain Waves  Volcanic Ashes







- Airport Elevation : 616 ft
- IATA code : PUF
- Download approach charts


LFBP - Pau

CURRENT METAR :
  • 241030Z AUTO 26008KT 9999 FEW006 SCT019 BKN029 14/13 Q1019 TEMPO 2000 RADZ BECMG BKN010 OVC020

EXPIRED METARs :
  • 241000Z AUTO 29009KT 4300 -RA BR SCT007 BKN019 BKN028 14/13 Q1019 BECMG BKN005 OVC020
  • 240930Z AUTO 30007KT 2200 -RA BR BKN007 BKN012 BKN017 14/13 Q1019 BECMG 4000 -RA
  • 240900Z AUTO 29009KT 3400 -RA BR BKN006 BKN012 BKN022 13/13 Q1019 NOSIG
  • 240830Z AUTO 30010KT 3100 -DZ BR BKN006 OVC012 14/13 Q1019 TEMPO 2000 RA BKN003 BKN015TCU BECMG 24005KT
  • 240800Z AUTO 30009KT 4900 -DZ BR BKN006/// BKN010/// OVC024/// ///TCU 14/13 Q1019 TEMPO 2000 RA BKN003 BKN015TCU

TAF AMD TAF LFBP
Valid from the 24 at 09:00 until the 25 at 06:00 UTC


240947Z 2409/2506 30010KT 5000 -RA BKN010 OVC020
TEMPO 2409/2412 2000 RADZ BKN005 OVC012
No reported NOTAMs for that airfield.
1 SIGMET reported for the Bordeaux FIR (LFBB) :
 
Severe turbulence
LFBB SIGMET 1 VALID 240800/241200 LFPW
LFBB BORDEAUX FIR/UIR SEV TURB FCST WI N4245 W00030 - N4300 W00145 - N4430 W00145 - N4545 W00045 - N4615 E00130 - N4245 W00030 FL260/340 STNR NC=



MET'MAP, your aeronautical weather chart ! - Copyright ORBIFLY December 2007 - Disclaimer

ORBIFLY MET'MAP TEAM :

Programming & Development : Alexandra Zaïnal
Concept & Development : Baudouin d'Aumeries
Co-Development & Prog : Marc-Olivier Méhu
Technical & hardware support : Manuel Goepfert

Contact : metmap@orbifly.com




SOURCES & CREDITS :

   NOAA